»·PEaware :: N89455 KSAN-KPSP

N89455 :: KSAN-KPSP

FLIGHT INFORMATION

Flight Status: Arrived
Operator: Privately registered:
United States
More flights under this callsign
Pilot: Dretana A. (25430)
Aircraft: CESSNA 206 STATIONAIR
(C206)
More flights by this aircraft type
Origin: KSAN San Diego Intl-Lindbergh
United States
Destination: KPSP Palm Springs Intl
United States
More flights between these airports :: More routes between these airports
Route: +BRDR7 JLI V208 TRM
File this flight plan on PilotEdge
Remarks:
Altitude:
(Current/Filed)
9,000ft
Speed:
(Current/Filed)
120kts
Departed: 01-Feb-20 06:47 PM
Arrived: 01-Feb-20 07:51 PM
Distance/Time
Traveled:
74nm/1:04
Distance/Time
To Go:
Arrived

Flight Plot

Page will automatically refresh every two minutes.


Map Options




Map Legend


Flown Route
Filed Route
Departure Airport
Arrival Airport
Navaid (VOR, NDB)
Fix

Horizontal Profiles

Position Reports

Time Latitude Longitude Heading Altitude Ground
Speed
01-Feb-20 17:48 32.733331 -117.181496 16 18ft 0kts
01-Feb-20 17:49 32.733331 -117.181496 16 18ft 0kts
01-Feb-20 17:50 32.733331 -117.181496 16 18ft 0kts
01-Feb-20 17:51 32.733331 -117.181496 16 18ft 0kts
01-Feb-20 17:52 32.733331 -117.181496 16 18ft 0kts
01-Feb-20 17:53 32.733331 -117.181496 16 18ft 0kts
01-Feb-20 17:54 32.733332 -117.181496 16 18ft 0kts
01-Feb-20 17:55 32.733332 -117.181496 16 18ft 0kts
01-Feb-20 17:56 32.733332 -117.181496 16 18ft 0kts
01-Feb-20 17:57 32.733332 -117.181496 16 18ft 0kts
01-Feb-20 17:58 32.733332 -117.181496 16 18ft 0kts
01-Feb-20 17:59 32.733332 -117.181496 16 18ft 0kts
01-Feb-20 18:00 32.733332 -117.181496 16 18ft 0kts
01-Feb-20 18:01 32.733333 -117.181496 16 18ft 0kts
01-Feb-20 18:02 32.733333 -117.181496 16 18ft 0kts
01-Feb-20 18:03 32.733333 -117.181496 16 18ft 0kts
01-Feb-20 18:04 32.733333 -117.181496 16 18ft 0kts
01-Feb-20 18:05 32.733333 -117.181495 16 18ft 0kts
01-Feb-20 18:06 32.733333 -117.181495 16 18ft 0kts
01-Feb-20 18:07 32.733333 -117.181495 16 18ft 0kts
01-Feb-20 18:08 32.733333 -117.181495 16 18ft 0kts
01-Feb-20 18:09 32.733334 -117.181495 16 18ft 0kts
01-Feb-20 18:10 32.733334 -117.181495 16 18ft 0kts
01-Feb-20 18:11 32.733334 -117.181495 16 18ft 0kts
01-Feb-20 18:12 32.733334 -117.181495 16 18ft 0kts
01-Feb-20 18:13 32.733334 -117.181495 16 18ft 0kts
01-Feb-20 18:14 32.733334 -117.181495 16 18ft 0kts
01-Feb-20 18:15 32.733334 -117.181495 16 18ft 0kts
01-Feb-20 18:16 32.733334 -117.181495 16 18ft 0kts
01-Feb-20 18:17 32.733335 -117.181495 16 18ft 0kts
01-Feb-20 18:18 32.733335 -117.181495 16 18ft 0kts
01-Feb-20 18:19 32.733335 -117.181495 16 18ft 0kts
01-Feb-20 18:20 32.733335 -117.181495 16 18ft 0kts
01-Feb-20 18:21 32.733335 -117.181495 16 18ft 0kts
01-Feb-20 18:22 32.733335 -117.181495 16 18ft 0kts
01-Feb-20 18:24 32.733335 -117.181495 16 18ft 0kts
01-Feb-20 18:25 32.733336 -117.181495 16 18ft 0kts
01-Feb-20 18:26 32.733336 -117.181495 16 18ft 0kts
01-Feb-20 18:27 32.733336 -117.181494 16 18ft 0kts
01-Feb-20 18:28 32.733336 -117.181494 16 18ft 0kts
01-Feb-20 18:29 32.733336 -117.181494 16 18ft 0kts
01-Feb-20 18:30 32.733336 -117.181494 16 18ft 0kts
01-Feb-20 18:31 32.733336 -117.181494 16 18ft 0kts
01-Feb-20 18:32 32.733336 -117.181494 16 18ft 0kts
01-Feb-20 18:33 32.733336 -117.181494 16 18ft 0kts
01-Feb-20 18:34 32.733337 -117.181494 16 18ft 0kts
01-Feb-20 18:35 32.733337 -117.181494 16 18ft 0kts
01-Feb-20 18:36 32.733337 -117.181494 16 18ft 0kts
01-Feb-20 18:37 32.733337 -117.181494 16 18ft 0kts
01-Feb-20 18:38 32.733337 -117.181494 16 18ft 0kts
01-Feb-20 18:39 32.733337 -117.181494 16 18ft 0kts
01-Feb-20 18:40 32.733337 -117.181494 16 18ft 0kts
01-Feb-20 18:41 32.733338 -117.181494 16 18ft 0kts
01-Feb-20 18:42 32.733338 -117.181494 16 18ft 0kts
01-Feb-20 18:42 32.732999 -117.181650 176 19ft 13kts
01-Feb-20 18:44 32.730813 -117.175107 169 19ft 6kts
01-Feb-20 18:45 32.730663 -117.175126 193 18ft 0kts
01-Feb-20 18:45 32.730277 -117.176147 280 19ft 2kts
01-Feb-20 18:46 32.732345 -117.184697 286 103ft 92kts
01-Feb-20 18:48 32.743109 -117.225680 289 909ft 116kts
01-Feb-20 18:48 32.750339 -117.255618 281 1412ft 110kts
01-Feb-20 18:49 32.759007 -117.293184 292 1737ft 123kts
01-Feb-20 18:50 32.768502 -117.330148 288 2301ft 116kts
01-Feb-20 18:51 32.777753 -117.366044 292 2915ft 109kts
01-Feb-20 18:52 32.787126 -117.401672 285 3454ft 115kts
01-Feb-20 18:53 32.784926 -117.438974 229 4023ft 118kts
01-Feb-20 18:54 32.767161 -117.420496 117 4700ft 114kts
01-Feb-20 18:55 32.744858 -117.391182 131 5280ft 124kts
01-Feb-20 18:56 32.720222 -117.359574 134 5822ft 129kts
01-Feb-20 18:57 32.696838 -117.326742 134 6398ft 133kts
01-Feb-20 18:58 32.674492 -117.292350 131 7032ft 131kts
01-Feb-20 18:59 32.651083 -117.260027 137 7688ft 128kts
01-Feb-20 19:00 32.628184 -117.226887 139 8294ft 130kts
01-Feb-20 19:01 32.619197 -117.184796 90 8898ft 137kts
01-Feb-20 19:02 32.616965 -117.135919 95 9051ft 156kts
01-Feb-20 19:03 32.613886 -117.083719 96 9158ft 155kts
01-Feb-20 19:04 32.611565 -117.030876 95 9166ft 158kts
01-Feb-20 19:05 32.607709 -116.977552 98 9018ft 168kts
01-Feb-20 19:06 32.610045 -116.923440 76 9018ft 161kts
01-Feb-20 19:07 32.622022 -116.872325 67 9017ft 160kts
01-Feb-20 19:08 32.626753 -116.819816 85 9066ft 160kts
01-Feb-20 19:09 32.641607 -116.774759 12 9096ft 143kts
01-Feb-20 19:10 32.678462 -116.755556 17 9155ft 148kts
01-Feb-20 19:11 32.717786 -116.742753 1 8999ft 145kts
01-Feb-20 19:12 32.756910 -116.730586 9 8999ft 146kts
01-Feb-20 19:13 32.795757 -116.716184 10 9000ft 146kts
01-Feb-20 19:14 32.834527 -116.701585 10 9000ft 146kts
01-Feb-20 19:15 32.873282 -116.686949 10 9000ft 146kts
01-Feb-20 19:16 32.911896 -116.672354 10 9000ft 146kts
01-Feb-20 19:17 32.950603 -116.657711 10 9000ft 146kts
01-Feb-20 19:18 32.989403 -116.643019 10 9000ft 146kts
01-Feb-20 19:19 33.028070 -116.628364 10 9000ft 146kts
01-Feb-20 19:20 33.066834 -116.613660 10 9000ft 146kts
01-Feb-20 19:21 33.105652 -116.598921 10 9000ft 146kts
01-Feb-20 19:22 33.144022 -116.582639 26 9000ft 151kts
01-Feb-20 19:23 33.178287 -116.552851 30 8999ft 152kts
01-Feb-20 19:24 33.212561 -116.522907 30 9000ft 152kts
01-Feb-20 19:25 33.246854 -116.493071 30 9000ft 152kts
01-Feb-20 19:26 33.281121 -116.463253 30 9000ft 152kts
01-Feb-20 19:27 33.315421 -116.433376 30 9000ft 152kts
01-Feb-20 19:28 33.349597 -116.403583 30 9000ft 152kts
01-Feb-20 19:29 33.383886 -116.373660 30 9000ft 152kts
01-Feb-20 19:30 33.418107 -116.343763 29 8999ft 150kts
01-Feb-20 19:31 33.451720 -116.314718 28 8999ft 149kts
01-Feb-20 19:32 33.485524 -116.285453 28 8999ft 149kts
01-Feb-20 19:33 33.518976 -116.256097 29 9000ft 149kts
01-Feb-20 19:34 33.552448 -116.226521 28 9000ft 149kts
01-Feb-20 19:35 33.586013 -116.197334 28 9000ft 149kts
01-Feb-20 19:36 33.619479 -116.167993 27 8988ft 149kts
01-Feb-20 19:37 33.650867 -116.178172 310 8167ft 119kts
01-Feb-20 19:38 33.674048 -116.204041 309 7290ft 112kts
01-Feb-20 19:39 33.694650 -116.228096 305 6718ft 101kts
01-Feb-20 19:40 33.714076 -116.251271 309 6188ft 95kts
01-Feb-20 19:41 33.725986 -116.279905 290 5554ft 102kts
01-Feb-20 19:42 33.731253 -116.315356 296 4669ft 114kts
01-Feb-20 19:43 33.740735 -116.351888 279 3858ft 115kts
01-Feb-20 19:44 33.749721 -116.388338 288 3157ft 113kts
01-Feb-20 19:45 33.761939 -116.422087 310 2561ft 115kts
01-Feb-20 19:46 33.779289 -116.451010 298 1802ft 98kts
01-Feb-20 19:47 33.792097 -116.473779 316 1262ft 76kts
01-Feb-20 19:48 33.810037 -116.490102 325 932ft 79kts
01-Feb-20 19:49 33.826251 -116.504623 323 481ft 45kts
01-Feb-20 19:50 33.829553 -116.508407 251 480ft 0kts

Navigation Log

Ident Type
Flight plan parsing failed, navigation log unavailable